sensor_id;sensor_type;location;lat;lon;timestamp;pressure;altitude;pressure_sealevel;temperature;humidity
74552;BME280;63025;55.472;38.432;2023-06-24T00:01:15;99534.09;;;17.40;85.47
74552;BME280;63025;55.472;38.432;2023-06-24T00:03:41;99532.47;;;17.39;85.62
74552;BME280;63025;55.472;38.432;2023-06-24T00:06:12;99535.97;;;17.35;85.38
74552;BME280;63025;55.472;38.432;2023-06-24T00:08:47;99546.00;;;17.29;85.36
74552;BME280;63025;55.472;38.432;2023-06-24T00:11:13;99544.63;;;17.21;85.17
74552;BME280;63025;55.472;38.432;2023-06-24T00:13:42;99540.78;;;17.17;85.33
74552;BME280;63025;55.472;38.432;2023-06-24T00:16:09;99544.31;;;17.13;85.31
74552;BME280;63025;55.472;38.432;2023-06-24T00:18:36;99544.53;;;17.06;84.87
74552;BME280;63025;55.472;38.432;2023-06-24T00:21:02;99526.31;;;16.97;84.74
74552;BME280;63025;55.472;38.432;2023-06-24T00:23:29;99523.84;;;16.90;84.50
74552;BME280;63025;55.472;38.432;2023-06-24T00:26:01;99527.84;;;16.82;84.54
74552;BME280;63025;55.472;38.432;2023-06-24T00:28:27;99520.25;;;16.79;84.81
74552;BME280;63025;55.472;38.432;2023-06-24T00:30:53;99529.41;;;16.73;84.40
74552;BME280;63025;55.472;38.432;2023-06-24T00:33:19;99526.94;;;16.67;84.43
74552;BME280;63025;55.472;38.432;2023-06-24T00:35:45;99519.56;;;16.62;84.31
74552;BME280;63025;55.472;38.432;2023-06-24T00:38:12;99517.91;;;16.56;84.33
74552;BME280;63025;55.472;38.432;2023-06-24T00:40:38;99516.50;;;16.48;84.08
74552;BME280;63025;55.472;38.432;2023-06-24T00:43:05;99506.91;;;16.41;84.16
74552;BME280;63025;55.472;38.432;2023-06-24T00:45:33;99516.69;;;16.37;84.08
74552;BME280;63025;55.472;38.432;2023-06-24T00:47:59;99508.50;;;16.32;84.13
74552;BME280;63025;55.472;38.432;2023-06-24T00:50:25;99510.63;;;16.25;84.40
74552;BME280;63025;55.472;38.432;2023-06-24T00:52:52;99522.78;;;16.22;84.34
74552;BME280;63025;55.472;38.432;2023-06-24T00:55:18;99507.31;;;16.18;84.15
74552;BME280;63025;55.472;38.432;2023-06-24T00:57:47;99515.13;;;16.14;84.15
74552;BME280;63025;55.472;38.432;2023-06-24T01:00:18;99507.50;;;16.11;83.72
74552;BME280;63025;55.472;38.432;2023-06-24T01:02:49;99517.00;;;16.08;83.71
74552;BME280;63025;55.472;38.432;2023-06-24T01:05:16;99509.38;;;16.05;83.70
74552;BME280;63025;55.472;38.432;2023-06-24T01:07:42;99514.75;;;16.00;83.63
74552;BME280;63025;55.472;38.432;2023-06-24T01:10:09;99511.50;;;15.98;83.94
74552;BME280;63025;55.472;38.432;2023-06-24T01:12:37;99507.16;;;15.97;84.06
74552;BME280;63025;55.472;38.432;2023-06-24T01:15:08;99510.38;;;15.94;83.98
74552;BME280;63025;55.472;38.432;2023-06-24T01:17:41;99511.44;;;15.93;83.88
74552;BME280;63025;55.472;38.432;2023-06-24T01:20:14;99506.78;;;15.89;84.14
74552;BME280;63025;55.472;38.432;2023-06-24T01:34:55;99507.59;;;15.89;84.35
74552;BME280;63025;55.472;38.432;2023-06-24T01:40:05;99515.78;;;15.94;84.46
74552;BME280;63025;55.472;38.432;2023-06-24T01:42:43;99507.16;;;15.97;84.53
74552;BME280;63025;55.472;38.432;2023-06-24T01:45:16;99514.75;;;16.00;84.54
74552;BME280;63025;55.472;38.432;2023-06-24T01:47:48;99515.63;;;16.06;84.39
74552;BME280;63025;55.472;38.432;2023-06-24T01:50:21;99524.09;;;16.14;84.86
74552;BME280;63025;55.472;38.432;2023-06-24T01:52:50;99530.66;;;16.24;85.41
74552;BME280;63025;55.472;38.432;2023-06-24T01:55:19;99526.94;;;16.30;85.56
74552;BME280;63025;55.472;38.432;2023-06-24T01:57:48;99516.38;;;16.33;86.02
74552;BME280;63025;55.472;38.432;2023-06-24T02:00:17;99527.28;;;16.38;86.24
74552;BME280;63025;55.472;38.432;2023-06-24T02:02:49;99518.59;;;16.41;86.12
74552;BME280;63025;55.472;38.432;2023-06-24T02:05:17;99521.63;;;16.45;86.32
74552;BME280;63025;55.472;38.432;2023-06-24T02:07:46;99517.06;;;16.50;86.44
74552;BME280;63025;55.472;38.432;2023-06-24T02:10:14;99520.31;;;16.52;86.37
74552;BME280;63025;55.472;38.432;2023-06-24T02:12:41;99512.47;;;16.56;86.24
74552;BME280;63025;55.472;38.432;2023-06-24T02:15:08;99516.03;;;16.62;86.29
74552;BME280;63025;55.472;38.432;2023-06-24T02:17:35;99519.38;;;16.69;86.21
74552;BME280;63025;55.472;38.432;2023-06-24T02:20:22;99519.94;;;16.76;86.22
74552;BME280;63025;55.472;38.432;2023-06-24T02:22:53;99532.75;;;16.80;86.39
74552;BME280;63025;55.472;38.432;2023-06-24T02:25:21;99520.25;;;16.84;86.29
74552;BME280;63025;55.472;38.432;2023-06-24T02:27:49;99517.03;;;16.87;86.09
74552;BME280;63025;55.472;38.432;2023-06-24T02:30:15;99527.38;;;16.91;85.99
74552;BME280;63025;55.472;38.432;2023-06-24T02:32:41;99527.63;;;16.94;85.86
74552;BME280;63025;55.472;38.432;2023-06-24T02:35:07;99526.34;;;17.07;85.66
74552;BME280;63025;55.472;38.432;2023-06-24T02:37:33;99513.94;;;17.26;85.59
74552;BME280;63025;55.472;38.432;2023-06-24T02:39:59;99518.91;;;17.49;85.25
74552;BME280;63025;55.472;38.432;2023-06-24T02:42:26;99522.78;;;17.69;84.66
74552;BME280;63025;55.472;38.432;2023-06-24T02:44:53;99522.56;;;17.90;83.98
74552;BME280;63025;55.472;38.432;2023-06-24T02:47:19;99523.66;;;18.00;83.37
74552;BME280;63025;55.472;38.432;2023-06-24T02:49:48;99518.22;;;17.94;82.70
74552;BME280;63025;55.472;38.432;2023-06-24T02:52:15;99524.47;;;18.00;82.38
74552;BME280;63025;55.472;38.432;2023-06-24T02:54:41;99524.75;;;18.04;82.27
74552;BME280;63025;55.472;38.432;2023-06-24T02:57:26;99535.38;;;18.05;82.00
74552;BME280;63025;55.472;38.432;2023-06-24T03:00:18;99528.84;;;18.06;81.60
74552;BME280;63025;55.472;38.432;2023-06-24T03:03:05;99531.25;;;18.08;81.25
74552;BME280;63025;55.472;38.432;2023-06-24T03:05:35;99531.00;;;18.14;80.87
74552;BME280;63025;55.472;38.432;2023-06-24T03:08:02;99537.00;;;18.21;80.54
74552;BME280;63025;55.472;38.432;2023-06-24T03:10:29;99535.63;;;18.14;80.14
74552;BME280;63025;55.472;38.432;2023-06-24T03:12:56;99536.72;;;18.18;80.15
74552;BME280;63025;55.472;38.432;2023-06-24T03:15:29;99532.38;;;18.22;79.99
74552;BME280;63025;55.472;38.432;2023-06-24T03:17:55;99532.38;;;18.12;79.34
74552;BME280;63025;55.472;38.432;2023-06-24T03:20:21;99534.28;;;18.06;78.27
74552;BME280;63025;55.472;38.432;2023-06-24T03:22:50;99540.53;;;18.12;77.59
74552;BME280;63025;55.472;38.432;2023-06-24T03:25:18;99545.72;;;18.23;76.77
74552;BME280;63025;55.472;38.432;2023-06-24T03:27:47;99547.88;;;18.47;76.05
74552;BME280;63025;55.472;38.432;2023-06-24T03:30:14;99543.28;;;18.57;75.89
74552;BME280;63025;55.472;38.432;2023-06-24T03:32:42;99541.38;;;18.68;75.06
74552;BME280;63025;55.472;38.432;2023-06-24T03:35:14;99546.22;;;18.81;74.84
74552;BME280;63025;55.472;38.432;2023-06-24T03:37:41;99549.47;;;18.93;74.12
74552;BME280;63025;55.472;38.432;2023-06-24T03:40:07;99546.97;;;19.07;73.37
74552;BME280;63025;55.472;38.432;2023-06-24T03:42:35;99545.56;;;19.25;73.22
74552;BME280;63025;55.472;38.432;2023-06-24T03:45:02;99541.69;;;19.36;72.66
74552;BME280;63025;55.472;38.432;2023-06-24T03:47:29;99535.09;;;19.52;72.01
74552;BME280;63025;55.472;38.432;2023-06-24T03:49:55;99549.28;;;19.44;72.17
74552;BME280;63025;55.472;38.432;2023-06-24T03:52:21;99550.34;;;19.53;71.78
74552;BME280;63025;55.472;38.432;2023-06-24T03:54:48;99549.84;;;19.51;71.66
74552;BME280;63025;55.472;38.432;2023-06-24T03:57:14;99548.72;;;19.52;70.74
74552;BME280;63025;55.472;38.432;2023-06-24T03:59:40;99544.34;;;19.61;70.69
74552;BME280;63025;55.472;38.432;2023-06-24T04:02:05;99545.53;;;19.89;69.94
74552;BME280;63025;55.472;38.432;2023-06-24T04:04:34;99541.84;;;20.04;69.40
74552;BME280;63025;55.472;38.432;2023-06-24T04:07:02;99537.94;;;20.20;68.84
74552;BME280;63025;55.472;38.432;2023-06-24T04:09:33;99534.63;;;20.57;69.27
74552;BME280;63025;55.472;38.432;2023-06-24T04:11:59;99538.91;;;20.68;69.13
74552;BME280;63025;55.472;38.432;2023-06-24T04:14:30;99541.16;;;20.61;68.10
74552;BME280;63025;55.472;38.432;2023-06-24T04:16:56;99536.69;;;20.41;67.27
74552;BME280;63025;55.472;38.432;2023-06-24T04:19:22;99547.31;;;20.04;67.14
74552;BME280;63025;55.472;38.432;2023-06-24T04:21:49;99545.03;;;19.82;67.80
74552;BME280;63025;55.472;38.432;2023-06-24T04:24:14;99551.88;;;19.79;67.58
74552;BME280;63025;55.472;38.432;2023-06-24T04:26:40;99551.66;;;19.71;67.47
74552;BME280;63025;55.472;38.432;2023-06-24T04:29:06;99562.88;;;19.59;67.75
74552;BME280;63025;55.472;38.432;2023-06-24T04:31:31;99555.56;;;19.50;68.01
74552;BME280;63025;55.472;38.432;2023-06-24T04:33:57;99554.66;;;19.64;68.32
74552;BME280;63025;55.472;38.432;2023-06-24T04:36:23;99557.88;;;19.76;68.17
74552;BME280;63025;55.472;38.432;2023-06-24T04:38:48;99561.09;;;19.84;68.26
74552;BME280;63025;55.472;38.432;2023-06-24T04:41:14;99565.31;;;20.05;67.65
74552;BME280;63025;55.472;38.432;2023-06-24T04:43:40;99570.56;;;20.01;67.16
74552;BME280;63025;55.472;38.432;2023-06-24T04:46:05;99571.09;;;19.98;66.91
74552;BME280;63025;55.472;38.432;2023-06-24T04:48:31;99570.78;;;20.05;66.81
74552;BME280;63025;55.472;38.432;2023-06-24T04:50:57;99579.44;;;20.17;66.59
74552;BME280;63025;55.472;38.432;2023-06-24T04:53:23;99573.22;;;20.11;66.53
74552;BME280;63025;55.472;38.432;2023-06-24T04:55:49;99578.66;;;20.11;66.66
74552;BME280;63025;55.472;38.432;2023-06-24T04:58:14;99573.56;;;19.95;66.69
74552;BME280;63025;55.472;38.432;2023-06-24T05:00:40;99574.22;;;19.76;67.15
74552;BME280;63025;55.472;38.432;2023-06-24T05:03:06;99579.19;;;19.69;67.03
74552;BME280;63025;55.472;38.432;2023-06-24T05:05:32;99579.19;;;19.69;67.59
74552;BME280;63025;55.472;38.432;2023-06-24T05:07:58;99573.19;;;19.72;67.23
74552;BME280;63025;55.472;38.432;2023-06-24T05:10:23;99563.31;;;19.76;66.75
74552;BME280;63025;55.472;38.432;2023-06-24T05:12:49;99571.50;;;19.82;67.14
74552;BME280;63025;55.472;38.432;2023-06-24T05:15:15;99568.38;;;19.98;66.52
74552;BME280;63025;55.472;38.432;2023-06-24T05:17:42;99575.41;;;20.04;66.32
74552;BME280;63025;55.472;38.432;2023-06-24T05:20:08;99576.50;;;20.08;66.12
74552;BME280;63025;55.472;38.432;2023-06-24T05:22:34;99579.94;;;20.24;65.52
74552;BME280;63025;55.472;38.432;2023-06-24T05:25:00;99567.34;;;20.28;65.66
74552;BME280;63025;55.472;38.432;2023-06-24T05:27:26;99570.00;;;20.43;65.64
74552;BME280;63025;55.472;38.432;2023-06-24T05:29:51;99565.63;;;20.42;65.25
74552;BME280;63025;55.472;38.432;2023-06-24T05:32:17;99574.50;;;20.24;65.19
74552;BME280;63025;55.472;38.432;2023-06-24T05:34:46;99577.56;;;20.12;65.28
74552;BME280;63025;55.472;38.432;2023-06-24T05:37:12;99579.22;;;20.08;65.28
74552;BME280;63025;55.472;38.432;2023-06-24T05:39:37;99571.44;;;19.92;66.33
74552;BME280;63025;55.472;38.432;2023-06-24T05:42:03;99574.84;;;19.63;65.79
74552;BME280;63025;55.472;38.432;2023-06-24T05:44:29;99570.31;;;19.33;66.53
74552;BME280;63025;55.472;38.432;2023-06-24T05:46:55;99578.53;;;19.23;67.49
74552;BME280;63025;55.472;38.432;2023-06-24T05:49:20;99574.47;;;19.16;67.97
74552;BME280;63025;55.472;38.432;2023-06-24T05:51:46;99567.72;;;18.98;67.64
74552;BME280;63025;55.472;38.432;2023-06-24T05:54:12;99580.25;;;18.99;68.00
74552;BME280;63025;55.472;38.432;2023-06-24T05:56:37;99577.53;;;18.99;67.76
74552;BME280;63025;55.472;38.432;2023-06-24T05:59:03;99582.16;;;18.88;68.42
74552;BME280;63025;55.472;38.432;2023-06-24T06:01:29;99579.47;;;18.78;68.68
74552;BME280;63025;55.472;38.432;2023-06-24T06:03:54;99586.84;;;18.57;68.99
74552;BME280;63025;55.472;38.432;2023-06-24T06:06:20;99591.16;;;18.58;69.28
74552;BME280;63025;55.472;38.432;2023-06-24T06:08:47;99579.72;;;18.46;69.02
74552;BME280;63025;55.472;38.432;2023-06-24T06:11:12;99589.81;;;18.61;68.66
74552;BME280;63025;55.472;38.432;2023-06-24T06:13:38;99592.53;;;18.71;68.50
74552;BME280;63025;55.472;38.432;2023-06-24T06:16:04;99595.25;;;18.71;68.36
74552;BME280;63025;55.472;38.432;2023-06-24T06:18:30;99599.63;;;18.67;68.43
74552;BME280;63025;55.472;38.432;2023-06-24T06:20:55;99604.50;;;18.65;68.05
74552;BME280;63025;55.472;38.432;2023-06-24T06:23:21;99610.50;;;18.62;68.46
74552;BME280;63025;55.472;38.432;2023-06-24T06:25:47;99610.47;;;18.57;68.28
74552;BME280;63025;55.472;38.432;2023-06-24T06:28:12;99605.03;;;18.47;68.42
74552;BME280;63025;55.472;38.432;2023-06-24T06:30:38;99603.13;;;18.47;68.49
74552;BME280;63025;55.472;38.432;2023-06-24T06:33:04;99607.75;;;18.52;68.54
74552;BME280;63025;55.472;38.432;2023-06-24T06:35:30;99600.44;;;18.57;68.39
74552;BME280;63025;55.472;38.432;2023-06-24T06:37:57;99609.13;;;18.59;68.59
74552;BME280;63025;55.472;38.432;2023-06-24T06:40:23;99602.88;;;18.59;68.24
74552;BME280;63025;55.472;38.432;2023-06-24T06:42:49;99600.41;;;18.47;68.46
74552;BME280;63025;55.472;38.432;2023-06-24T06:45:15;99595.50;;;18.44;68.58
74552;BME280;63025;55.472;38.432;2023-06-24T06:47:41;99610.19;;;18.43;68.41
74552;BME280;63025;55.472;38.432;2023-06-24T06:50:07;99600.41;;;18.52;68.16
74552;BME280;63025;55.472;38.432;2023-06-24T06:52:35;99607.22;;;18.55;68.26
74552;BME280;63025;55.472;38.432;2023-06-24T06:55:01;99601.25;;;18.58;68.72
74552;BME280;63025;55.472;38.432;2023-06-24T06:57:29;99607.44;;;18.38;68.44
74552;BME280;63025;55.472;38.432;2023-06-24T06:59:56;99607.19;;;18.34;68.59
74552;BME280;63025;55.472;38.432;2023-06-24T07:02:22;99606.94;;;18.46;68.96
74552;BME280;63025;55.472;38.432;2023-06-24T07:04:47;99606.13;;;18.56;68.58
74552;BME280;63025;55.472;38.432;2023-06-24T07:07:13;99599.06;;;18.60;68.29
74552;BME280;63025;55.472;38.432;2023-06-24T07:09:39;99605.88;;;18.78;68.61
74552;BME280;63025;55.472;38.432;2023-06-24T07:12:06;99606.41;;;18.75;68.34
74552;BME280;63025;55.472;38.432;2023-06-24T07:14:32;99608.59;;;18.67;68.26
74552;BME280;63025;55.472;38.432;2023-06-24T07:16:57;99610.50;;;18.67;68.49
74552;BME280;63025;55.472;38.432;2023-06-24T07:19:23;99605.03;;;18.57;68.50
74552;BME280;63025;55.472;38.432;2023-06-24T07:21:49;99602.59;;;18.55;68.46
74552;BME280;63025;55.472;38.432;2023-06-24T07:24:14;99601.50;;;18.56;68.51
74552;BME280;63025;55.472;38.432;2023-06-24T07:26:40;99603.69;;;18.59;68.91
74552;BME280;63025;55.472;38.432;2023-06-24T07:29:06;99607.50;;;18.58;68.95
74552;BME280;63025;55.472;38.432;2023-06-24T07:31:33;99604.22;;;18.56;68.80
74552;BME280;63025;55.472;38.432;2023-06-24T07:33:59;99617.59;;;18.68;68.75
74552;BME280;63025;55.472;38.432;2023-06-24T07:36:24;99612.69;;;18.65;69.06
74552;BME280;63025;55.472;38.432;2023-06-24T07:38:50;99611.88;;;18.64;69.11
74552;BME280;63025;55.472;38.432;2023-06-24T07:41:16;99611.03;;;18.59;68.53
74552;BME280;63025;55.472;38.432;2023-06-24T07:43:42;99609.66;;;18.56;68.90
74552;BME280;63025;55.472;38.432;2023-06-24T07:46:08;99614.31;;;18.61;68.90
74552;BME280;63025;55.472;38.432;2023-06-24T07:48:34;99623.56;;;18.65;68.67
74552;BME280;63025;55.472;38.432;2023-06-24T07:50:59;99613.72;;;18.54;68.28
74552;BME280;63025;55.472;38.432;2023-06-24T07:53:25;99627.38;;;18.59;68.49
74552;BME280;63025;55.472;38.432;2023-06-24T07:55:51;99625.97;;;18.51;68.12
74552;BME280;63025;55.472;38.432;2023-06-24T07:58:17;99608.03;;;18.55;68.48
74552;BME280;63025;55.472;38.432;2023-06-24T08:00:45;99609.66;;;18.56;68.32
74552;BME280;63025;55.472;38.432;2023-06-24T08:03:12;99624.13;;;18.67;68.29
74552;BME280;63025;55.472;38.432;2023-06-24T08:05:37;99629.00;;;18.75;68.19
74552;BME280;63025;55.472;38.432;2023-06-24T08:08:05;99635.53;;;18.64;68.46
74552;BME280;63025;55.472;38.432;2023-06-24T08:10:31;99628.47;;;18.68;68.31
74552;BME280;63025;55.472;38.432;2023-06-24T08:12:57;99654.88;;;18.62;68.56
74552;BME280;63025;55.472;38.432;2023-06-24T08:15:23;99647.50;;;18.48;68.65
74552;BME280;63025;55.472;38.432;2023-06-24T08:17:52;99655.38;;;18.49;68.81
74552;BME280;63025;55.472;38.432;2023-06-24T08:20:20;99652.38;;;18.41;68.57
74552;BME280;63025;55.472;38.432;2023-06-24T08:22:46;99663.00;;;18.47;68.99
74552;BME280;63025;55.472;38.432;2023-06-24T08:25:11;99661.13;;;18.63;68.33
74552;BME280;63025;55.472;38.432;2023-06-24T08:27:37;99662.47;;;18.70;68.36
74552;BME280;63025;55.472;38.432;2023-06-24T08:30:04;99657.84;;;18.71;68.63
74552;BME280;63025;55.472;38.432;2023-06-24T08:32:30;99661.66;;;18.70;68.32
74552;BME280;63025;55.472;38.432;2023-06-24T08:34:56;99665.78;;;18.67;68.56
74552;BME280;63025;55.472;38.432;2023-06-24T08:37:22;99675.81;;;18.57;68.70
74552;BME280;63025;55.472;38.432;2023-06-24T08:39:48;99664.91;;;18.47;68.94
74552;BME280;63025;55.472;38.432;2023-06-24T08:42:13;99666.78;;;18.36;69.49
74552;BME280;63025;55.472;38.432;2023-06-24T08:44:39;99672.50;;;18.34;69.50
74552;BME280;63025;55.472;38.432;2023-06-24T08:47:05;99673.06;;;18.42;69.73
74552;BME280;63025;55.472;38.432;2023-06-24T08:49:32;99673.06;;;18.47;69.90
74552;BME280;63025;55.472;38.432;2023-06-24T08:52:18;99672.53;;;18.55;70.13
74552;BME280;63025;55.472;38.432;2023-06-24T08:54:50;99674.16;;;18.56;69.77
74552;BME280;63025;55.472;38.432;2023-06-24T08:57:16;99664.91;;;18.57;69.90
74552;BME280;63025;55.472;38.432;2023-06-24T08:59:44;99672.56;;;18.60;69.98
74552;BME280;63025;55.472;38.432;2023-06-24T09:02:09;99674.75;;;18.68;69.74
74552;BME280;63025;55.472;38.432;2023-06-24T09:04:36;99677.19;;;18.59;69.72
74552;BME280;63025;55.472;38.432;2023-06-24T09:07:02;99675.28;;;18.60;70.07
74552;BME280;63025;55.472;38.432;2023-06-24T09:09:28;99685.09;;;18.66;70.18
74552;BME280;63025;55.472;38.432;2023-06-24T09:11:59;99689.97;;;18.69;70.18
74552;BME280;63025;55.472;38.432;2023-06-24T09:14:26;99683.47;;;18.85;70.02
74552;BME280;63025;55.472;38.432;2023-06-24T09:16:57;99683.19;;;18.87;69.89
74552;BME280;63025;55.472;38.432;2023-06-24T09:19:25;99677.50;;;18.78;70.24
74552;BME280;63025;55.472;38.432;2023-06-24T09:24:33;99689.19;;;18.79;70.31
74552;BME280;63025;55.472;38.432;2023-06-24T09:26:59;99698.69;;;18.71;70.86
74552;BME280;63025;55.472;38.432;2023-06-24T09:29:31;99701.97;;;18.73;71.16
74552;BME280;63025;55.472;38.432;2023-06-24T09:31:57;99695.72;;;18.83;70.81
74552;BME280;63025;55.472;38.432;2023-06-24T09:34:26;99692.19;;;18.87;70.79
74552;BME280;63025;55.472;38.432;2023-06-24T09:36:53;99698.97;;;19.05;70.68
74552;BME280;63025;55.472;38.432;2023-06-24T09:39:20;99710.16;;;18.88;70.89
74552;BME280;63025;55.472;38.432;2023-06-24T09:41:50;99701.44;;;18.81;71.55
74552;BME280;63025;55.472;38.432;2023-06-24T09:44:17;99705.25;;;18.65;71.80
74552;BME280;63025;55.472;38.432;2023-06-24T09:46:45;99713.09;;;18.56;72.50
74552;BME280;63025;55.472;38.432;2023-06-24T09:49:11;99713.91;;;18.57;72.31
74552;BME280;63025;55.472;38.432;2023-06-24T09:51:38;99714.75;;;18.57;73.06
74552;BME280;63025;55.472;38.432;2023-06-24T09:54:06;99710.88;;;18.48;73.51
74552;BME280;63025;55.472;38.432;2023-06-24T09:56:36;99717.13;;;18.49;73.97
74552;BME280;63025;55.472;38.432;2023-06-24T09:59:05;99726.94;;;18.45;74.39
74552;BME280;63025;55.472;38.432;2023-06-24T10:01:52;99724.28;;;18.70;74.53
74552;BME280;63025;55.472;38.432;2023-06-24T10:04:19;99729.75;;;18.75;74.46
74552;BME280;63025;55.472;38.432;2023-06-24T10:06:45;99735.19;;;18.70;74.39
74552;BME280;63025;55.472;38.432;2023-06-24T10:09:12;99739.75;;;18.54;74.71
74552;BME280;63025;55.472;38.432;2023-06-24T10:11:41;99735.75;;;18.67;74.72
74552;BME280;63025;55.472;38.432;2023-06-24T10:14:07;99739.81;;;18.80;74.31
74552;BME280;63025;55.472;38.432;2023-06-24T10:16:33;99741.19;;;18.92;73.76
74552;BME280;63025;55.472;38.432;2023-06-24T10:19:03;99749.09;;;19.14;73.83
74552;BME280;63025;55.472;38.432;2023-06-24T10:21:52;99752.09;;;19.13;72.81
74552;BME280;63025;55.472;38.432;2023-06-24T10:24:47;99752.09;;;19.02;72.65
74552;BME280;63025;55.472;38.432;2023-06-24T10:27:18;99746.91;;;18.91;72.03
74552;BME280;63025;55.472;38.432;2023-06-24T10:29:52;99762.44;;;18.95;71.98
74552;BME280;63025;55.472;38.432;2023-06-24T10:32:18;99766.81;;;18.96;71.51
74552;BME280;63025;55.472;38.432;2023-06-24T10:34:54;99770.09;;;19.09;71.56
74552;BME280;63025;55.472;38.432;2023-06-24T10:37:22;99781.25;;;19.07;70.89
74552;BME280;63025;55.472;38.432;2023-06-24T10:39:59;99775.25;;;19.15;71.03
74552;BME280;63025;55.472;38.432;2023-06-24T10:44:52;99776.63;;;19.23;70.07
74552;BME280;63025;55.472;38.432;2023-06-24T10:47:18;99778.53;;;19.07;70.39
74552;BME280;63025;55.472;38.432;2023-06-24T10:49:44;99774.44;;;18.99;70.43
74552;BME280;63025;55.472;38.432;2023-06-24T10:52:11;99783.41;;;18.90;70.31
74552;BME280;63025;55.472;38.432;2023-06-24T10:54:37;99791.28;;;18.81;71.09
74552;BME280;63025;55.472;38.432;2023-06-24T10:57:04;99792.66;;;18.68;70.88
74552;BME280;63025;55.472;38.432;2023-06-24T10:59:46;99791.78;;;18.63;71.46
74552;BME280;63025;55.472;38.432;2023-06-24T11:02:17;99792.59;;;18.58;71.61
74552;BME280;63025;55.472;38.432;2023-06-24T11:04:50;99795.88;;;18.60;71.39
74552;BME280;63025;55.472;38.432;2023-06-24T11:07:18;99798.03;;;18.58;71.79
74552;BME280;63025;55.472;38.432;2023-06-24T11:09:55;99800.50;;;18.60;71.86
74552;BME280;63025;55.472;38.432;2023-06-24T11:12:26;99805.41;;;18.63;71.64
74552;BME280;63025;55.472;38.432;2023-06-24T11:14:56;99813.88;;;18.66;71.47
74552;BME280;63025;55.472;38.432;2023-06-24T11:17:22;99805.34;;;18.53;71.29
74552;BME280;63025;55.472;38.432;2023-06-24T11:19:48;99810.22;;;18.46;71.57
74552;BME280;63025;55.472;38.432;2023-06-24T11:22:13;99808.81;;;18.33;71.46
74552;BME280;63025;55.472;38.432;2023-06-24T11:24:39;99814.72;;;18.20;71.98
74552;BME280;63025;55.472;38.432;2023-06-24T11:27:05;99825.00;;;18.08;72.49
74552;BME280;63025;55.472;38.432;2023-06-24T11:29:32;99830.75;;;18.11;72.54
74552;BME280;63025;55.472;38.432;2023-06-24T11:31:58;99825.31;;;18.11;72.26
74552;BME280;63025;55.472;38.432;2023-06-24T11:34:24;99838.34;;;18.09;72.23
74552;BME280;63025;55.472;38.432;2023-06-24T11:36:51;99838.91;;;18.06;72.04
74552;BME280;63025;55.472;38.432;2023-06-24T11:39:24;99854.66;;;18.09;72.04
74552;BME280;63025;55.472;38.432;2023-06-24T11:41:51;99848.66;;;18.07;71.98
74552;BME280;63025;55.472;38.432;2023-06-24T11:44:21;99845.69;;;18.09;71.87
74552;BME280;63025;55.472;38.432;2023-06-24T11:46:48;99847.06;;;18.11;72.03
74552;BME280;63025;55.472;38.432;2023-06-24T11:49:14;99850.03;;;18.10;71.93
74552;BME280;63025;55.472;38.432;2023-06-24T11:51:48;99856.00;;;18.07;71.98
74552;BME280;63025;55.472;38.432;2023-06-24T11:54:21;99854.91;;;18.03;71.93
74552;BME280;63025;55.472;38.432;2023-06-24T11:56:51;99859.00;;;18.05;72.03
74552;BME280;63025;55.472;38.432;2023-06-24T11:59:18;99852.56;;;18.21;71.26
74552;BME280;63025;55.472;38.432;2023-06-24T12:01:45;99856.72;;;18.34;70.87
74552;BME280;63025;55.472;38.432;2023-06-24T12:04:14;99859.16;;;18.36;70.87
74552;BME280;63025;55.472;38.432;2023-06-24T12:06:43;99857.59;;;18.45;70.85
74552;BME280;63025;55.472;38.432;2023-06-24T12:09:09;99868.78;;;18.53;70.61
74552;BME280;63025;55.472;38.432;2023-06-24T12:11:35;99873.47;;;18.58;70.30
74552;BME280;63025;55.472;38.432;2023-06-24T12:14:01;99864.47;;;18.62;69.88
74552;BME280;63025;55.472;38.432;2023-06-24T12:16:27;99873.47;;;18.58;70.00
74552;BME280;63025;55.472;38.432;2023-06-24T12:18:53;99884.59;;;18.56;70.31
74552;BME280;63025;55.472;38.432;2023-06-24T12:21:19;99879.63;;;18.48;70.25
74552;BME280;63025;55.472;38.432;2023-06-24T12:23:45;99872.31;;;18.54;70.19
74552;BME280;63025;55.472;38.432;2023-06-24T12:26:11;99876.19;;;18.63;70.37
74552;BME280;63025;55.472;38.432;2023-06-24T12:28:37;99870.75;;;18.63;70.24
74552;BME280;63025;55.472;38.432;2023-06-24T12:31:03;99879.78;;;18.74;70.07
74552;BME280;63025;55.472;38.432;2023-06-24T12:33:29;99879.81;;;18.84;70.14
74552;BME280;63025;55.472;38.432;2023-06-24T12:35:55;99875.19;;;18.84;70.03
74552;BME280;63025;55.472;38.432;2023-06-24T12:38:20;99883.63;;;18.88;69.40
74552;BME280;63025;55.472;38.432;2023-06-24T12:40:46;99874.69;;;18.97;69.52
74552;BME280;63025;55.472;38.432;2023-06-24T12:43:14;99880.66;;;18.94;69.57
74552;BME280;63025;55.472;38.432;2023-06-24T12:45:42;99873.84;;;18.87;69.76
74552;BME280;63025;55.472;38.432;2023-06-24T12:48:13;99878.44;;;18.76;69.59
74552;BME280;63025;55.472;38.432;2023-06-24T12:50:39;99875.97;;;18.80;69.69
74552;BME280;63025;55.472;38.432;2023-06-24T12:53:04;99881.22;;;18.96;69.31
74552;BME280;63025;55.472;38.432;2023-06-24T12:55:30;99883.72;;;19.23;68.62
74552;BME280;63025;55.472;38.432;2023-06-24T12:57:56;99887.28;;;19.44;67.60
74552;BME280;63025;55.472;38.432;2023-06-24T13:00:23;99882.91;;;19.38;67.55
74552;BME280;63025;55.472;38.432;2023-06-24T13:02:50;99889.19;;;19.43;67.04
74552;BME280;63025;55.472;38.432;2023-06-24T13:05:16;99882.13;;;19.68;65.97
74552;BME280;63025;55.472;38.432;2023-06-24T13:07:42;99890.31;;;19.83;65.68
74552;BME280;63025;55.472;38.432;2023-06-24T13:10:09;99888.66;;;19.87;65.05
74552;BME280;63025;55.472;38.432;2023-06-24T13:12:35;99887.84;;;19.87;65.56